LQTZ

Tuzla International Airport

Airport
ICAO code
LQTZ
IATA Code
TL
Summary
ICAO Region
EUR
ICAO Territory
Location

Gornje Dubrave, Tuzla

Serving
Tuzla
Elevation
765 ft
Coordinates
44° 27' 45" N , 18° 43' 28" E
KCC
Metar
Observation
LQTZ 071930Z 06002KT CAVOK 11/11 Q1023
Station
Tuzla
Date/Time
2022-10-07 19:30:00
Wind direction
60°
Wind speed
02 kts
Lowest cloud amount
clouds and visibility OK
Temperature
11°C
Dew point
11°C
Humidity
100%
QNH
1023 hPa
Weather condition
n/a

Tuzla International Airport is an airport near Tuzla, Bosnia and Herzegovina.

Climatology

Temperate oceanic climate (Köppen climate classification Cfb)

Runways

Designator Length Width Surface Rops
9/27 2485 45 ASP No/No

Airport map

Aerial View

SKYbrary Partners:

Safety knowledge contributed by: